createdAt,value
2023-05-21T00:02:14.528Z,101244.35
2023-05-21T00:04:42.452Z,101244.59
2023-05-21T00:07:12.627Z,101241.87
2023-05-21T00:09:41.088Z,101242.45
2023-05-21T00:12:09.907Z,101249.63
2023-05-21T00:14:37.770Z,101242.46
2023-05-21T00:17:05.580Z,101246.24
2023-05-21T00:19:33.740Z,101248.45
2023-05-21T00:22:04.483Z,101245.88
2023-05-21T00:24:32.427Z,101246.57
2023-05-21T00:27:01.012Z,101242.08
2023-05-21T00:29:30.143Z,101248.52
2023-05-21T00:31:58.197Z,101245.40
2023-05-21T00:34:26.464Z,101246.48
2023-05-21T00:36:55.837Z,101244.69
2023-05-21T00:39:24.582Z,101238.83
2023-05-21T00:41:52.515Z,101245.36
2023-05-21T00:44:20.890Z,101240.20
2023-05-21T00:46:53.438Z,101240.58
2023-05-21T00:49:24.318Z,101242.06
2023-05-21T00:51:52.963Z,101243.65
2023-05-21T00:54:21.889Z,101245.73
2023-05-21T00:56:51.175Z,101241.80
2023-05-21T00:59:19.503Z,101238.52
2023-05-21T01:01:53.839Z,101243.17
2023-05-21T01:04:25.291Z,101242.85
2023-05-21T01:06:53.501Z,101238.30
2023-05-21T01:09:22.304Z,101235.89
2023-05-21T01:11:51.822Z,101239.34
2023-05-21T01:14:20.648Z,101236.40
2023-05-21T01:16:50.533Z,101232.17
2023-05-21T01:19:22.164Z,101234.03
2023-05-21T01:21:56.275Z,101227.66
2023-05-21T01:24:24.208Z,101226.70
2023-05-21T01:26:52.940Z,101231.30
2023-05-21T01:29:20.906Z,101231.52
2023-05-21T01:32:16.172Z,101228.44
2023-05-21T01:35:13.041Z,101229.12
2023-05-21T01:37:48.829Z,101230.11
2023-05-21T01:41:03.569Z,101231.33
2023-05-21T01:43:34.964Z,101229.90
2023-05-21T01:46:03.789Z,101228.78
2023-05-21T01:48:35.030Z,101229.13
2023-05-21T01:51:05.880Z,101228.08
2023-05-21T01:53:33.747Z,101230.55
2023-05-21T01:56:02.791Z,101233.89
2023-05-21T01:58:30.765Z,101230.50
2023-05-21T02:00:58.650Z,101228.87
2023-05-21T02:03:28.097Z,101225.25
2023-05-21T02:05:57.092Z,101227.75
2023-05-21T02:08:25.504Z,101227.37
2023-05-21T02:10:53.724Z,101225.34
2023-05-21T02:13:25.149Z,101221.42
2023-05-21T02:15:55.201Z,101222.67
2023-05-21T02:18:23.695Z,101225.49
2023-05-21T02:20:51.566Z,101226.29
2023-05-21T02:23:19.444Z,101221.60
2023-05-21T02:25:47.324Z,101219.36
2023-05-21T02:28:15.812Z,101222.58
2023-05-21T02:30:43.684Z,101223.77
2023-05-21T02:33:14.351Z,101220.98
2023-05-21T02:35:43.834Z,101221.61
2023-05-21T02:38:13.512Z,101219.82
2023-05-21T02:40:41.377Z,101218.65
2023-05-21T02:43:09.263Z,101216.52
2023-05-21T02:45:37.345Z,101214.98
2023-05-21T02:48:05.929Z,101216.63
2023-05-21T02:50:36.530Z,101214.59
2023-05-21T02:53:04.338Z,101214.50
2023-05-21T02:55:32.612Z,101211.80
2023-05-21T02:58:00.527Z,101210.30
2023-05-21T03:00:28.406Z,101210.34
2023-05-21T03:02:56.728Z,101205.46
2023-05-21T03:05:24.713Z,101205.43
2023-05-21T03:07:53.286Z,101201.89
2023-05-21T03:10:21.705Z,101203.89
2023-05-21T03:12:49.775Z,101203.39
2023-05-21T03:15:18.193Z,101201.89
2023-05-21T03:17:46.119Z,101205.85
2023-05-21T03:20:16.460Z,101206.13
2023-05-21T03:22:45.828Z,101204.54
2023-05-21T03:25:14.675Z,101204.41
2023-05-21T03:27:42.593Z,101204.41
2023-05-21T03:30:30.493Z,101204.38
2023-05-21T03:33:16.479Z,101199.59
2023-05-21T03:35:44.712Z,101199.59
2023-05-21T03:38:12.641Z,101201.75
2023-05-21T03:40:40.495Z,101199.01
2023-05-21T03:43:08.428Z,101201.87
2023-05-21T03:45:37.972Z,101201.93
2023-05-21T03:48:29.064Z,101195.55
2023-05-21T03:50:57.388Z,101196.02
2023-05-21T03:53:25.427Z,101195.02
2023-05-21T03:55:55.257Z,101199.65
2023-05-21T03:58:24.832Z,101195.69
2023-05-21T04:00:52.957Z,101198.19
2023-05-21T04:03:21.368Z,101197.71
2023-05-21T04:05:49.473Z,101197.04
2023-05-21T04:08:17.675Z,101198.04
2023-05-21T04:10:45.632Z,101197.88
2023-05-21T04:13:13.537Z,101190.56
2023-05-21T04:15:43.631Z,101192.16
2023-05-21T04:18:13.588Z,101192.84
2023-05-21T04:20:41.435Z,101189.88
2023-05-21T04:23:10.457Z,101185.33
2023-05-21T04:25:38.676Z,101183.73
2023-05-21T04:28:07.258Z,101182.90
2023-05-21T04:30:35.607Z,101186.67
2023-05-21T04:33:04.738Z,101187.81
2023-05-21T04:35:35.476Z,101183.86
2023-05-21T04:38:05.776Z,101185.98
2023-05-21T04:40:33.871Z,101188.61
2023-05-21T04:43:04.968Z,101184.92
2023-05-21T04:45:33.636Z,101190.92
2023-05-21T04:48:02.797Z,101188.94
2023-05-21T04:50:31.640Z,101190.60
2023-05-21T04:52:59.452Z,101191.96
2023-05-21T04:55:27.568Z,101195.02
2023-05-21T04:57:55.586Z,101195.90
2023-05-21T05:00:26.112Z,101189.73
2023-05-21T05:02:54.414Z,101192.70
2023-05-21T05:05:22.517Z,101195.16
2023-05-21T05:07:50.820Z,101194.88
2023-05-21T05:10:18.722Z,101196.73
2023-05-21T05:12:46.606Z,101197.38
2023-05-21T05:15:14.645Z,101202.58
2023-05-21T05:17:42.741Z,101198.02
2023-05-21T05:20:11.650Z,101197.30
2023-05-21T05:22:39.613Z,101195.84
2023-05-21T05:25:08.136Z,101195.69
2023-05-21T05:27:38.386Z,101199.33
2023-05-21T05:30:07.843Z,101198.02
2023-05-21T05:32:36.044Z,101195.17
2023-05-21T05:35:04.497Z,101201.80
2023-05-21T05:37:33.482Z,101197.80
2023-05-21T05:40:01.673Z,101196.27
2023-05-21T05:42:30.497Z,101198.39
2023-05-21T05:45:05.118Z,101201.04
2023-05-21T05:47:34.747Z,101200.88
2023-05-21T05:50:02.705Z,101197.20
2023-05-21T05:52:30.579Z,101199.52
2023-05-21T05:54:58.435Z,101202.62
2023-05-21T05:57:26.271Z,101199.15
2023-05-21T05:59:54.885Z,101199.62
2023-05-21T06:02:22.829Z,101197.86
2023-05-21T06:04:50.810Z,101198.58
2023-05-21T06:07:18.886Z,101194.73
2023-05-21T06:09:46.780Z,101193.79
2023-05-21T06:12:15.940Z,101192.85
2023-05-21T06:14:46.106Z,101195.55
2023-05-21T06:17:14.505Z,101195.44
2023-05-21T06:19:45.088Z,101197.23
2023-05-21T06:22:13.172Z,101198.63
2023-05-21T06:24:41.069Z,101200.92
2023-05-21T06:27:09.072Z,101198.20
2023-05-21T06:29:37.213Z,101201.05
2023-05-21T06:32:06.064Z,101202.17
2023-05-21T06:34:33.975Z,101203.02
2023-05-21T06:37:01.857Z,101200.06
2023-05-21T06:39:29.691Z,101201.02
2023-05-21T06:41:57.691Z,101197.00
2023-05-21T06:44:42.053Z,101196.23
2023-05-21T06:47:15.840Z,101192.90
2023-05-21T06:49:44.782Z,101191.91
2023-05-21T06:52:12.677Z,101191.54
2023-05-21T06:54:41.029Z,101191.77
2023-05-21T06:57:09.248Z,101191.20
2023-05-21T06:59:37.264Z,101190.56
2023-05-21T07:02:06.297Z,101189.23
2023-05-21T07:04:35.280Z,101188.43
2023-05-21T07:07:06.246Z,101185.41
2023-05-21T07:09:34.371Z,101185.77
2023-05-21T07:12:02.519Z,101184.80
2023-05-21T07:14:30.599Z,101185.02
2023-05-21T07:16:59.163Z,101181.92
2023-05-21T07:19:27.164Z,101183.59
2023-05-21T07:21:56.629Z,101184.73
2023-05-21T07:24:27.513Z,101184.81
2023-05-21T07:26:55.907Z,101183.63
2023-05-21T07:29:23.991Z,101188.46
2023-05-21T07:31:52.459Z,101185.67
2023-05-21T07:34:21.827Z,101182.65
2023-05-21T07:36:49.992Z,101181.41
2023-05-21T07:39:18.550Z,101177.65
2023-05-21T07:41:46.452Z,101182.30
2023-05-21T07:44:14.360Z,101178.30
2023-05-21T07:46:43.495Z,101177.48
2023-05-21T07:49:16.773Z,101172.55
2023-05-21T07:51:46.102Z,101171.53
2023-05-21T07:54:14.154Z,101171.55
2023-05-21T07:56:42.096Z,101171.09
2023-05-21T07:59:14.833Z,101168.98
2023-05-21T08:01:43.530Z,101173.54
2023-05-21T08:04:12.496Z,101172.44
2023-05-21T08:06:41.988Z,101174.96
2023-05-21T08:09:09.933Z,101177.18
2023-05-21T08:11:38.183Z,101172.91
2023-05-21T08:14:06.640Z,101168.89
2023-05-21T08:16:34.557Z,101172.02
2023-05-21T08:19:03.761Z,101172.55
2023-05-21T08:21:32.647Z,101170.79
2023-05-21T08:24:02.733Z,101171.61
2023-05-21T08:26:31.018Z,101167.41
2023-05-21T08:29:00.909Z,101164.75
2023-05-21T08:31:28.730Z,101168.64
2023-05-21T08:33:56.790Z,101168.41
2023-05-21T08:36:34.216Z,101172.73
2023-05-21T08:39:06.523Z,101171.66
2023-05-21T08:41:38.017Z,101173.80
2023-05-21T08:44:12.300Z,101169.34
2023-05-21T08:46:45.202Z,101167.27
2023-05-21T08:49:17.447Z,101163.92
2023-05-21T08:51:47.072Z,101163.63
2023-05-21T08:54:15.851Z,101161.96
2023-05-21T08:56:47.176Z,101157.64
2023-05-21T08:59:18.344Z,101155.02
2023-05-21T09:01:46.947Z,101160.18
2023-05-21T09:04:27.618Z,101157.73
2023-05-21T09:06:58.066Z,101154.86
2023-05-21T09:09:56.085Z,101152.73
2023-05-21T09:12:25.518Z,101154.88
2023-05-21T09:14:54.195Z,101155.38
2023-05-21T09:17:27.774Z,101153.06
2023-05-21T09:20:17.472Z,101150.12
2023-05-21T09:22:51.791Z,101156.93
2023-05-21T09:25:27.973Z,101156.89
2023-05-21T09:27:57.598Z,101154.37
2023-05-21T09:30:30.065Z,101155.85
2023-05-21T09:33:00.191Z,101162.13
2023-05-21T09:35:28.174Z,101161.64
2023-05-21T09:37:57.383Z,101159.77
2023-05-21T09:40:25.542Z,101157.98
2023-05-21T09:42:55.329Z,101159.91
2023-05-21T09:45:25.851Z,101160.91
2023-05-21T09:47:56.436Z,101158.52
2023-05-21T09:50:27.853Z,101157.32
2023-05-21T09:52:56.064Z,101156.44
2023-05-21T09:55:26.595Z,101156.04
2023-05-21T09:57:54.710Z,101150.82
2023-05-21T10:00:27.523Z,101158.23
2023-05-21T10:02:57.989Z,101148.27
2023-05-21T10:05:30.621Z,101149.79
2023-05-21T10:08:04.319Z,101142.31
2023-05-21T10:10:32.653Z,101144.66
2023-05-21T10:13:12.318Z,101139.80
2023-05-21T10:15:50.136Z,101138.84
2023-05-21T10:18:19.400Z,101138.35
2023-05-21T10:20:47.865Z,101136.09
2023-05-21T10:23:16.763Z,101135.71
2023-05-21T10:25:45.578Z,101132.45
2023-05-21T10:28:19.408Z,101132.23
2023-05-21T10:30:47.975Z,101128.23
2023-05-21T10:33:19.972Z,101118.59
2023-05-21T10:35:53.122Z,101113.25
2023-05-21T10:38:21.773Z,101114.48
2023-05-21T10:40:50.050Z,101117.99
2023-05-21T10:43:54.594Z,101115.59
2023-05-21T10:46:49.791Z,101115.73
2023-05-21T10:49:56.468Z,101116.70
2023-05-21T10:52:57.146Z,101113.96
2023-05-21T10:55:43.469Z,101109.79
2023-05-21T10:58:37.009Z,101103.33
2023-05-21T11:01:07.026Z,101094.30
2023-05-21T11:03:37.488Z,101090.84
2023-05-21T11:06:06.444Z,101093.29
2023-05-21T11:08:38.872Z,101090.48
2023-05-21T11:11:06.919Z,101091.00
2023-05-21T11:13:49.199Z,101088.59
2023-05-21T11:16:18.319Z,101088.39
2023-05-21T11:18:46.311Z,101095.98
2023-05-21T11:21:16.133Z,101088.67
2023-05-21T11:23:56.644Z,101095.45
2023-05-21T11:26:27.793Z,101093.70
2023-05-21T11:29:08.609Z,101086.11
2023-05-21T11:31:39.988Z,101087.45
2023-05-21T11:34:11.047Z,101084.94
2023-05-21T11:36:45.508Z,101079.66
2023-05-21T11:39:23.925Z,101084.70
2023-05-21T11:42:04.457Z,101079.05
2023-05-21T11:44:48.932Z,101080.80
2023-05-21T11:47:19.477Z,101084.02
2023-05-21T11:49:48.115Z,101078.91
2023-05-21T11:52:16.022Z,101075.55
2023-05-21T11:54:50.578Z,101067.43
2023-05-21T11:57:19.591Z,101067.45
2023-05-21T11:59:51.368Z,101067.13
2023-05-21T12:02:21.754Z,101070.53
2023-05-21T12:04:50.969Z,101066.90
2023-05-21T12:07:20.220Z,101071.92
2023-05-21T12:09:50.337Z,101058.16
2023-05-21T12:12:24.238Z,101058.85
2023-05-21T12:14:54.578Z,101059.95
2023-05-21T12:17:28.103Z,101055.84
2023-05-21T12:19:58.887Z,101050.64
2023-05-21T12:22:28.154Z,101053.62
2023-05-21T12:25:00.225Z,101058.55
2023-05-21T12:27:30.877Z,101057.45
2023-05-21T12:29:59.483Z,101058.41
2023-05-21T12:32:27.943Z,101059.06
2023-05-21T12:34:56.324Z,101056.76
2023-05-21T12:37:26.855Z,101056.09
2023-05-21T12:39:59.569Z,101060.30
2023-05-21T12:42:35.632Z,101054.15
2023-05-21T12:45:08.259Z,101051.83
2023-05-21T12:47:36.581Z,101054.65
2023-05-21T12:50:11.622Z,101051.98
2023-05-21T12:52:44.262Z,101047.36
2023-05-21T12:55:15.506Z,101040.20
2023-05-21T12:57:43.913Z,101038.35
2023-05-21T13:00:12.528Z,101038.06
2023-05-21T13:02:43.263Z,101037.31
2023-05-21T13:05:20.598Z,101042.10
2023-05-21T13:07:48.581Z,101040.27
2023-05-21T13:10:16.854Z,101037.90
2023-05-21T13:12:45.452Z,101033.64
2023-05-21T13:15:14.089Z,101027.44
2023-05-21T13:17:42.045Z,101034.50
2023-05-21T13:20:21.282Z,101026.48
2023-05-21T13:22:52.050Z,101025.83
2023-05-21T13:25:28.976Z,101025.06
2023-05-21T13:27:58.079Z,101024.25
2023-05-21T13:30:26.259Z,101022.37
2023-05-21T13:32:55.024Z,101022.81
2023-05-21T13:35:23.131Z,101021.77
2023-05-21T13:37:51.260Z,101020.77
2023-05-21T13:40:19.514Z,101022.77
2023-05-21T13:42:49.394Z,101022.51
2023-05-21T13:45:20.829Z,101023.85
2023-05-21T13:47:49.060Z,101019.09
2023-05-21T13:50:17.332Z,101019.69
2023-05-21T13:52:46.096Z,101014.50
2023-05-21T13:55:16.098Z,101013.85
2023-05-21T13:57:45.589Z,101015.08
2023-05-21T14:00:15.806Z,101018.36
2023-05-21T14:02:44.678Z,101012.68
2023-05-21T14:05:13.906Z,101011.70
2023-05-21T14:07:42.174Z,101003.95
2023-05-21T14:10:11.777Z,101000.32
2023-05-21T14:12:40.935Z,101000.23
2023-05-21T14:15:09.531Z,100998.14
2023-05-21T14:17:42.179Z,101002.77
2023-05-21T14:20:10.942Z,101001.94
2023-05-21T14:22:39.055Z,101003.29
2023-05-21T14:25:07.281Z,101001.84
2023-05-21T14:27:37.733Z,101004.67
2023-05-21T14:30:06.814Z,100999.91
2023-05-21T14:32:34.801Z,101000.26
2023-05-21T14:35:02.932Z,101001.19
2023-05-21T14:37:30.954Z,101002.86
2023-05-21T14:39:58.893Z,100996.98
2023-05-21T14:42:26.759Z,101000.55
2023-05-21T14:44:54.793Z,100999.98
2023-05-21T14:47:22.738Z,101001.40
2023-05-21T14:49:51.703Z,101002.35
2023-05-21T14:52:19.738Z,100999.36
2023-05-21T14:54:47.716Z,100998.50
2023-05-21T14:57:15.706Z,100995.95
2023-05-21T14:59:43.675Z,101001.77
2023-05-21T15:02:11.638Z,101006.16
2023-05-21T15:04:40.103Z,101008.35
2023-05-21T15:07:07.976Z,101004.63
2023-05-21T15:09:36.044Z,101002.74
2023-05-21T15:12:04.384Z,100997.59
2023-05-21T15:14:32.298Z,100999.70
2023-05-21T15:17:00.220Z,100993.48
2023-05-21T15:19:28.232Z,100995.42
2023-05-21T15:21:56.211Z,100994.66
2023-05-21T15:24:24.150Z,100990.85
2023-05-21T15:26:52.086Z,100988.83
2023-05-21T15:29:19.966Z,100989.95
2023-05-21T15:31:47.830Z,100989.71
2023-05-21T15:34:17.935Z,100991.85
2023-05-21T15:36:46.179Z,100986.12
2023-05-21T15:39:14.086Z,100982.11
2023-05-21T15:41:41.969Z,100988.35
2023-05-21T15:44:09.906Z,100986.44
2023-05-21T15:46:37.813Z,100982.40
2023-05-21T15:49:05.899Z,100976.63
2023-05-21T15:51:33.785Z,100982.16
2023-05-21T15:54:01.680Z,100978.40
2023-05-21T15:56:29.581Z,100981.58
2023-05-21T15:58:59.966Z,100973.07
2023-05-21T16:01:28.520Z,100972.85
2023-05-21T16:03:56.614Z,100971.09
2023-05-21T16:06:24.685Z,100971.91
2023-05-21T16:08:52.602Z,100973.63
2023-05-21T16:11:21.374Z,100973.23
2023-05-21T16:13:49.250Z,100975.59
2023-05-21T16:16:17.304Z,100977.61
2023-05-21T16:18:45.553Z,100978.29
2023-05-21T16:21:13.981Z,100972.05
2023-05-21T16:23:42.012Z,100976.70
2023-05-21T16:26:10.970Z,100972.54
2023-05-21T16:28:39.146Z,100970.20
2023-05-21T16:31:07.073Z,100971.68
2023-05-21T16:33:35.478Z,100966.52
2023-05-21T16:36:03.391Z,100968.27
2023-05-21T16:38:31.693Z,100966.84
2023-05-21T16:41:00.147Z,100965.52
2023-05-21T16:43:28.027Z,100968.28
2023-05-21T16:45:55.966Z,100968.50
2023-05-21T16:48:24.038Z,100970.02
2023-05-21T16:50:51.953Z,100968.77
2023-05-21T16:53:19.840Z,100965.04
2023-05-21T16:55:47.720Z,100968.75
2023-05-21T16:58:15.857Z,100968.36
2023-05-21T17:00:43.740Z,100966.55
2023-05-21T17:03:12.525Z,100968.92
2023-05-21T17:05:40.793Z,100966.39
2023-05-21T17:08:08.745Z,100963.92
2023-05-21T17:10:36.825Z,100966.27
2023-05-21T17:13:17.459Z,100970.96
2023-05-21T17:15:46.031Z,100971.00
2023-05-21T17:18:14.042Z,100974.58
2023-05-21T17:20:43.621Z,100976.55
2023-05-21T17:23:12.371Z,100976.70
2023-05-21T17:25:40.984Z,100975.85
2023-05-21T17:28:09.085Z,100978.80
2023-05-21T17:30:37.066Z,100984.45
2023-05-21T17:33:06.503Z,100980.52
2023-05-21T17:35:34.850Z,100980.22
2023-05-21T17:38:02.891Z,100973.62
2023-05-21T17:40:30.934Z,100971.98
2023-05-21T17:42:58.846Z,100973.48
2023-05-21T17:45:26.833Z,100974.82
2023-05-21T17:47:55.657Z,100970.19
2023-05-21T17:50:25.274Z,100967.46
2023-05-21T17:52:54.445Z,100967.66
2023-05-21T17:55:22.637Z,100965.61
2023-05-21T17:57:50.596Z,100956.52
2023-05-21T18:00:19.473Z,100963.59
2023-05-21T18:02:47.458Z,100968.02
2023-05-21T18:05:15.899Z,100971.77
2023-05-21T18:07:43.754Z,100974.77
2023-05-21T18:10:11.698Z,100975.83
2023-05-21T18:12:39.667Z,100981.48
2023-05-21T18:15:08.592Z,100984.59
2023-05-21T18:17:36.535Z,100985.36
2023-05-21T18:20:06.535Z,100989.73
2023-05-21T18:22:36.543Z,100989.68
2023-05-21T18:25:05.568Z,100987.20
2023-05-21T18:27:33.859Z,100988.38
2023-05-21T18:30:03.494Z,100986.65
2023-05-21T18:32:32.914Z,100986.14
2023-05-21T18:35:01.425Z,100982.26
2023-05-21T18:37:29.467Z,100987.84
2023-05-21T18:39:58.303Z,100989.73
2023-05-21T18:42:28.176Z,100991.51
2023-05-21T18:44:56.147Z,100990.23
2023-05-21T18:47:24.253Z,100999.56
2023-05-21T18:49:52.162Z,101004.21
2023-05-21T18:52:20.250Z,101003.98
2023-05-21T18:54:48.117Z,101007.73
2023-05-21T18:57:16.026Z,101006.83
2023-05-21T18:59:44.268Z,101006.85
2023-05-21T19:02:12.291Z,101007.94
2023-05-21T19:04:40.544Z,101006.45
2023-05-21T19:07:09.350Z,101008.83
2023-05-21T19:09:38.183Z,101010.95
2023-05-21T19:12:07.169Z,101011.44
2023-05-21T19:14:36.086Z,101006.92
2023-05-21T19:17:04.440Z,101005.52
2023-05-21T19:19:32.361Z,101002.37
2023-05-21T19:22:01.708Z,101000.83
2023-05-21T19:24:29.558Z,101002.23
2023-05-21T19:26:57.439Z,101002.55
2023-05-21T19:29:28.236Z,101001.52
2023-05-21T19:31:58.247Z,101006.62
2023-05-21T19:34:26.919Z,101003.77
2023-05-21T19:36:54.830Z,101004.11
2023-05-21T19:39:22.709Z,101002.04
2023-05-21T19:41:52.711Z,101002.26
2023-05-21T19:44:21.029Z,100999.44
2023-05-21T19:46:49.842Z,100994.96
2023-05-21T19:49:19.936Z,100996.61
2023-05-21T19:51:49.490Z,100998.95
2023-05-21T19:54:18.510Z,100997.63
2023-05-21T19:56:47.655Z,100992.50
2023-05-21T19:59:15.777Z,100994.48
2023-05-21T20:01:44.355Z,100994.55
2023-05-21T20:04:13.104Z,100992.08
2023-05-21T20:06:41.001Z,100993.95
2023-05-21T20:09:10.686Z,100990.23
2023-05-21T20:11:38.647Z,100989.79
2023-05-21T20:14:06.484Z,100993.27
2023-05-21T20:16:34.309Z,100992.80
2023-05-21T20:19:03.741Z,100995.58
2023-05-21T20:21:31.836Z,100993.29
2023-05-21T20:23:59.751Z,100993.86
2023-05-21T20:26:27.634Z,100994.16
2023-05-21T20:28:55.477Z,100992.13
2023-05-21T20:31:25.144Z,100987.09
2023-05-21T20:33:53.765Z,100985.58
2023-05-21T20:36:21.576Z,100982.33
2023-05-21T20:38:49.391Z,100985.64
2023-05-21T20:41:17.462Z,100989.67
2023-05-21T20:43:45.933Z,100989.94
2023-05-21T20:46:13.999Z,100994.11
2023-05-21T20:48:42.502Z,100994.63
2023-05-21T20:51:10.419Z,100993.25
2023-05-21T20:53:38.281Z,100995.66
2023-05-21T20:56:08.034Z,100998.60
2023-05-21T20:58:36.163Z,101000.23
2023-05-21T21:01:04.074Z,101002.69
2023-05-21T21:03:34.145Z,101002.36
2023-05-21T21:06:04.354Z,100999.71
2023-05-21T21:08:36.441Z,101002.89
2023-05-21T21:11:04.495Z,100998.80
2023-05-21T21:13:32.332Z,100999.88
2023-05-21T21:16:00.277Z,100998.00
2023-05-21T21:18:28.160Z,100997.25
2023-05-21T21:20:56.200Z,100997.02
2023-05-21T21:23:25.186Z,101000.27
2023-05-21T21:25:53.098Z,100996.85
2023-05-21T21:28:21.112Z,100996.04
2023-05-21T21:30:49.032Z,100995.34
2023-05-21T21:33:17.301Z,100997.33
2023-05-21T21:35:45.505Z,100993.73
2023-05-21T21:38:13.364Z,100991.75
2023-05-21T21:40:41.465Z,100991.33
2023-05-21T21:43:09.441Z,100995.13
2023-05-21T21:45:37.434Z,100992.55
2023-05-21T21:48:05.726Z,100997.55
2023-05-21T21:50:33.643Z,100991.61
2023-05-21T21:53:03.717Z,100995.24
2023-05-21T21:55:32.004Z,100991.01
2023-05-21T21:57:59.891Z,100992.23
2023-05-21T22:00:28.543Z,100992.71
2023-05-21T22:02:56.744Z,100991.39
2023-05-21T22:05:24.739Z,100988.21
2023-05-21T22:07:52.621Z,100988.85
2023-05-21T22:10:22.396Z,100991.24
2023-05-21T22:12:50.240Z,100989.20
2023-05-21T22:15:24.911Z,100990.85
2023-05-21T22:17:53.409Z,100990.19
2023-05-21T22:20:26.303Z,100990.39
2023-05-21T22:22:55.418Z,100985.63
2023-05-21T22:25:23.620Z,100986.00
2023-05-21T22:27:52.770Z,100986.11
2023-05-21T22:30:20.986Z,100987.04
2023-05-21T22:33:07.559Z,100987.71
2023-05-21T22:35:37.496Z,100984.16
2023-05-21T22:38:06.295Z,100984.13
2023-05-21T22:40:34.257Z,100989.36
2023-05-21T22:43:05.222Z,100985.09
2023-05-21T22:45:33.122Z,100985.88
2023-05-21T22:48:06.493Z,100984.29
2023-05-21T22:50:35.317Z,100981.51
2023-05-21T22:53:03.186Z,100979.36
2023-05-21T22:55:31.032Z,100982.56
2023-05-21T22:57:58.869Z,100983.77
2023-05-21T23:00:27.180Z,100980.42
2023-05-21T23:02:55.207Z,100978.97
2023-05-21T23:05:23.218Z,100975.92
2023-05-21T23:07:51.472Z,100977.76
2023-05-21T23:10:19.297Z,100972.58
2023-05-21T23:12:47.211Z,100972.12
2023-05-21T23:15:15.891Z,100971.17
2023-05-21T23:17:43.712Z,100970.35
2023-05-21T23:20:12.270Z,100974.64
2023-05-21T23:22:40.145Z,100974.68
2023-05-21T23:25:08.918Z,100974.52
2023-05-21T23:27:37.075Z,100973.08
2023-05-21T23:30:06.358Z,100975.84
2023-05-21T23:32:37.804Z,100973.42
2023-05-21T23:35:07.513Z,100971.62
2023-05-21T23:37:35.572Z,100975.94
2023-05-21T23:40:03.798Z,100980.05
2023-05-21T23:42:31.621Z,100980.08
2023-05-21T23:44:59.534Z,100973.63
2023-05-21T23:47:27.419Z,100976.54
2023-05-21T23:49:57.859Z,100981.33
2023-05-21T23:52:25.836Z,100979.60
2023-05-21T23:54:54.136Z,100979.39
2023-05-21T23:57:21.967Z,100980.60
2023-05-21T23:59:49.805Z,100981.96
